Time;durP1;ratioP1;P1;durP2;ratioP2;P2;SDS_P1;SDS_P2;PMS_P1;PMS_P2;Temp;Humidity;BMP_temperature;BMP_pressure;BME280_temperature;BME280_humidity;BME280_pressure;Samples;Min_cycle;Max_cycle;Signal;HPM_P1;HPM_P2
2022/01/10 00:00:21;;;;;;;9.15;4.13;;;4.40;99.90;;;;;;5077261;28;20096;-91
2022/01/10 00:02:50;;;;;;;11.50;4.20;;;4.40;99.90;;;;;;5091241;28;20031;-91
2022/01/10 00:05:20;;;;;;;10.43;5.32;;;4.40;99.90;;;;;;5093012;28;20020;-91
2022/01/10 00:07:46;;;;;;;11.75;4.03;;;4.30;99.90;;;;;;5109345;28;20115;-92
2022/01/10 00:10:12;;;;;;;8.32;4.20;;;4.40;99.90;;;;;;5084415;28;20440;-91
2022/01/10 00:12:38;;;;;;;8.38;4.13;;;4.20;99.90;;;;;;5099761;28;20043;-91
2022/01/10 00:15:16;;;;;;;13.18;5.38;;;4.30;99.90;;;;;;5101115;28;20447;-91
2022/01/10 00:17:43;;;;;;;5.30;3.25;;;4.30;99.90;;;;;;5095965;28;20387;-92
2022/01/10 00:20:11;;;;;;;9.80;4.00;;;4.20;99.90;;;;;;5088647;28;20020;-91
2022/01/10 00:22:53;;;;;;;6.60;3.88;;;4.20;99.90;;;;;;5073297;28;20032;-91
2022/01/10 00:25:21;;;;;;;8.48;3.72;;;4.20;99.90;;;;;;5078621;28;20142;-92
2022/01/10 00:27:49;;;;;;;5.60;3.20;;;4.20;99.90;;;;;;5113706;28;20076;-91
2022/01/10 00:30:48;;;;;;;10.23;3.20;;;4.20;99.90;;;;;;5113555;28;20027;-91
2022/01/10 00:33:14;;;;;;;5.03;2.78;;;4.20;99.90;;;;;;5095596;28;20035;-91
2022/01/10 00:35:40;;;;;;;6.22;3.15;;;4.20;99.90;;;;;;5107032;28;20028;-91
2022/01/10 00:38:09;;;;;;;4.07;2.75;;;4.20;99.90;;;;;;5063824;28;20056;-92
2022/01/10 00:40:34;;;;;;;9.88;3.15;;;4.20;99.90;;;;;;5068713;28;20028;-91
2022/01/10 00:43:00;;;;;;;5.25;3.00;;;4.10;99.90;;;;;;5083921;28;20043;-91
2022/01/10 00:45:40;;;;;;;5.65;2.88;;;4.10;99.90;;;;;;5095126;28;20387;-90
2022/01/10 00:48:05;;;;;;;15.00;3.10;;;4.10;99.90;;;;;;5077875;28;20436;-90
2022/01/10 00:50:33;;;;;;;7.90;3.22;;;4.10;99.90;;;;;;5091674;28;20123;-91
2022/01/10 00:53:06;;;;;;;7.55;3.13;;;4.20;99.90;;;;;;5113511;28;20024;-91
2022/01/10 00:55:32;;;;;;;7.10;3.15;;;4.20;99.90;;;;;;5113301;28;20038;-91
2022/01/10 00:57:57;;;;;;;7.57;2.70;;;4.10;99.90;;;;;;5064238;28;20024;-91
2022/01/10 01:00:26;;;;;;;7.40;4.03;;;4.10;99.90;;;;;;5054428;28;20055;-90
2022/01/10 01:02:52;;;;;;;7.93;2.80;;;4.00;99.90;;;;;;5072539;28;20503;-91
2022/01/10 01:05:21;;;;;;;8.55;2.50;;;4.00;99.90;;;;;;5074883;28;20033;-91
2022/01/10 01:07:54;;;;;;;11.88;3.28;;;3.90;99.90;;;;;;5086437;28;20028;-91
2022/01/10 01:13:01;;;;;;;8.73;2.85;;;3.80;99.90;;;;;;5101037;28;20071;-91
2022/01/10 01:15:31;;;;;;;4.78;2.42;;;3.70;99.90;;;;;;5074303;28;20027;-91
2022/01/10 01:18:32;;;;;;;3.95;2.30;;;3.70;99.90;;;;;;5092681;28;20492;-91
2022/01/10 01:26:38;;;;;;;7.00;2.50;;;3.60;99.90;;;;;;5072478;28;20075;-90
2022/01/10 01:29:10;;;;;;;3.53;2.00;;;3.60;99.90;;;;;;5080114;28;20462;-91
2022/01/10 01:31:38;;;;;;;5.97;2.13;;;3.60;99.90;;;;;;5108359;28;20081;-91
2022/01/10 01:34:04;;;;;;;7.75;2.55;;;3.70;99.90;;;;;;5111233;28;20038;-91
2022/01/10 01:36:31;;;;;;;10.02;2.78;;;3.60;99.90;;;;;;5094482;28;20399;-90
2022/01/10 01:39:50;;;;;;;6.43;2.45;;;3.70;99.90;;;;;;5091575;28;20031;-91
2022/01/10 01:45:07;;;;;;;12.52;3.50;;;3.70;99.90;;;;;;5112799;28;20061;-91
2022/01/10 01:47:32;;;;;;;9.88;2.45;;;3.70;99.90;;;;;;5075329;28;20387;-91
2022/01/10 01:49:59;;;;;;;9.13;2.58;;;3.70;99.90;;;;;;5074569;28;20020;-91
2022/01/10 01:52:27;;;;;;;15.02;3.20;;;3.60;99.90;;;;;;5092442;28;20059;-91
2022/01/10 01:54:53;;;;;;;9.93;2.65;;;3.70;99.90;;;;;;5085812;28;20110;-90
2022/01/10 01:57:19;;;;;;;8.98;2.72;;;3.80;99.90;;;;;;5078656;28;20602;-91
2022/01/10 01:59:48;;;;;;;10.65;2.30;;;3.70;99.90;;;;;;5102760;28;20119;-90
2022/01/10 02:02:14;;;;;;;8.43;2.63;;;3.70;99.90;;;;;;5094025;28;20028;-90
2022/01/10 02:04:39;;;;;;;6.78;2.42;;;3.60;99.90;;;;;;5116505;28;20016;-91
2022/01/10 02:07:07;;;;;;;7.93;1.85;;;3.50;99.90;;;;;;5098160;28;20019;-91
2022/01/10 02:09:33;;;;;;;6.47;1.95;;;3.50;99.90;;;;;;5116274;28;20020;-90
2022/01/10 02:11:59;;;;;;;14.80;2.47;;;3.40;99.90;;;;;;5086492;28;20039;-91
2022/01/10 02:14:25;;;;;;;6.07;2.38;;;3.40;99.90;;;;;;5098684;28;20039;-91
2022/01/10 02:16:55;;;;;;;6.93;2.20;;;3.30;99.90;;;;;;5119632;27;20032;-90
2022/01/10 02:19:22;;;;;;;15.80;2.80;;;3.30;99.90;;;;;;5076270;28;20031;-90
2022/01/10 02:21:48;;;;;;;6.85;2.83;;;3.30;99.90;;;;;;5090934;28;20035;-91
2022/01/10 02:24:36;;;;;;;5.70;2.55;;;3.40;99.90;;;;;;5116128;28;20429;-91
2022/01/10 02:27:01;;;;;;;12.50;2.55;;;3.40;99.90;;;;;;5115988;28;20028;-90
2022/01/10 02:29:27;;;;;;;8.38;2.00;;;3.40;99.90;;;;;;5097253;28;20031;-91
2022/01/10 02:31:55;;;;;;;8.63;2.65;;;3.40;99.90;;;;;;5100864;28;20032;-91
2022/01/10 02:34:24;;;;;;;6.45;1.95;;;3.50;99.90;;;;;;5094430;28;20122;-91
2022/01/10 02:37:10;;;;;;;9.45;2.90;;;3.50;99.90;;;;;;5089949;28;20036;-91
2022/01/10 02:39:36;;;;;;;8.85;2.13;;;3.50;99.90;;;;;;5104750;28;20584;-91
2022/01/10 02:42:03;;;;;;;9.77;3.25;;;3.50;99.90;;;;;;5068846;28;20485;-91
2022/01/10 02:44:36;;;;;;;14.00;3.05;;;3.50;99.90;;;;;;5106415;28;20031;-91
2022/01/10 02:47:01;;;;;;;9.60;2.47;;;3.60;99.90;;;;;;5071726;28;20028;-90
2022/01/10 02:49:28;;;;;;;13.52;2.92;;;3.60;99.90;;;;;;5082336;28;20024;-91
2022/01/10 02:51:57;;;;;;;15.73;3.20;;;3.70;99.90;;;;;;5066261;28;20028;-91
2022/01/10 02:54:24;;;;;;;11.10;2.65;;;3.70;99.90;;;;;;5073636;28;20032;-91
2022/01/10 02:56:56;;;;;;;11.73;2.95;;;3.70;99.90;;;;;;5075763;28;20030;-91
2022/01/10 02:59:27;;;;;;;10.63;2.75;;;3.80;99.90;;;;;;5087240;28;20020;-91
2022/01/10 03:01:54;;;;;;;14.00;3.50;;;3.80;99.90;;;;;;5074136;28;20027;-91
2022/01/10 03:04:20;;;;;;;13.38;2.78;;;3.80;99.90;;;;;;5115310;28;20593;-90
2022/01/10 03:06:48;;;;;;;8.00;1.95;;;3.90;99.90;;;;;;5100437;28;20027;-91
2022/01/10 03:09:14;;;;;;;13.48;2.85;;;3.90;99.90;;;;;;5076208;28;20100;-91
2022/01/10 03:11:41;;;;;;;10.23;2.70;;;3.90;99.90;;;;;;5055406;28;20103;-91
2022/01/10 03:14:12;;;;;;;17.17;4.13;;;3.90;99.90;;;;;;5076719;28;20035;-91
2022/01/10 03:16:37;;;;;;;9.55;2.38;;;3.90;99.90;;;;;;5079852;28;20031;-90
2022/01/10 03:19:03;;;;;;;20.05;4.65;;;3.90;99.90;;;;;;5114908;28;20384;-92
2022/01/10 03:21:49;;;;;;;13.90;2.67;;;4.00;99.90;;;;;;5078940;28;20028;-90
2022/01/10 03:24:14;;;;;;;15.25;2.95;;;4.10;99.90;;;;;;5107753;28;20027;-90
2022/01/10 03:26:47;;;;;;;6.63;2.33;;;4.10;99.90;;;;;;5114560;28;20020;-91
2022/01/10 03:29:13;;;;;;;19.90;3.42;;;4.10;99.90;;;;;;5096178;28;20034;-91
2022/01/10 03:31:39;;;;;;;15.07;2.90;;;4.00;99.90;;;;;;5096433;28;20028;-90
2022/01/10 03:34:35;;;;;;;11.23;2.33;;;4.10;99.90;;;;;;5088287;28;20034;-91
2022/01/10 03:37:01;;;;;;;11.63;3.17;;;4.20;99.90;;;;;;5101822;28;20478;-90
2022/01/10 03:39:27;;;;;;;8.80;2.58;;;4.20;99.90;;;;;;5096173;28;20027;-90
2022/01/10 03:41:53;;;;;;;6.63;2.05;;;4.10;99.90;;;;;;5081839;28;20486;-90
2022/01/10 03:44:19;;;;;;;6.50;2.10;;;4.10;99.90;;;;;;5089681;28;20078;-90
2022/01/10 03:46:45;;;;;;;8.15;2.20;;;4.00;99.90;;;;;;5072402;28;20464;-90
2022/01/10 03:49:44;;;;;;;5.18;1.83;;;4.10;99.90;;;;;;5078075;28;20024;-91
2022/01/10 03:52:10;;;;;;;10.50;2.25;;;4.00;99.90;;;;;;5082589;28;20070;-91
2022/01/10 03:54:35;;;;;;;10.55;2.55;;;4.00;99.90;;;;;;5080313;28;20426;-91
2022/01/10 03:57:01;;;;;;;11.93;3.22;;;4.00;99.90;;;;;;5075341;28;20051;-91
2022/01/10 03:59:27;;;;;;;20.02;2.85;;;4.10;99.90;;;;;;5109150;28;20035;-91
2022/01/10 04:01:53;;;;;;;13.88;2.92;;;4.10;99.90;;;;;;5079751;28;20033;-90
2022/01/10 04:04:20;;;;;;;7.38;2.22;;;4.10;99.90;;;;;;5095868;28;20563;-91
2022/01/10 04:06:45;;;;;;;15.68;3.25;;;4.10;99.90;;;;;;5097582;28;20042;-91
2022/01/10 04:09:11;;;;;;;13.80;2.58;;;4.20;99.90;;;;;;5111324;27;20052;-91
2022/01/10 04:12:02;;;;;;;12.18;2.95;;;4.20;99.90;;;;;;5073479;28;20035;-91
2022/01/10 04:14:27;;;;;;;14.00;2.90;;;4.20;99.90;;;;;;5068003;28;20045;-91
2022/01/10 04:16:53;;;;;;;19.58;3.80;;;4.20;99.90;;;;;;5052972;28;20083;-92
2022/01/10 04:19:57;;;;;;;27.15;3.63;;;4.20;99.90;;;;;;5053165;28;20095;-91
2022/01/10 04:22:22;;;;;;;11.18;3.38;;;4.20;99.90;;;;;;5079876;28;20035;-91
2022/01/10 04:24:48;;;;;;;28.88;4.43;;;4.20;99.90;;;;;;5073214;28;20029;-89
2022/01/10 04:27:26;;;;;;;14.27;3.58;;;4.30;99.90;;;;;;5098437;28;20028;-91
2022/01/10 04:29:52;;;;;;;12.82;3.53;;;4.30;99.90;;;;;;5092879;28;20031;-90
2022/01/10 04:32:29;;;;;;;16.92;4.85;;;4.30;99.90;;;;;;5093095;28;20024;-91
2022/01/10 04:34:54;;;;;;;17.40;3.78;;;4.30;99.90;;;;;;5075027;28;20049;-90
2022/01/10 04:37:20;;;;;;;19.02;4.60;;;4.30;99.90;;;;;;5093200;28;20107;-91
2022/01/10 04:39:48;;;;;;;18.48;4.57;;;4.30;99.90;;;;;;5071770;28;20033;-91
2022/01/10 04:42:13;;;;;;;21.45;4.40;;;4.20;99.90;;;;;;5076637;28;20387;-91
2022/01/10 04:44:58;;;;;;;16.80;3.55;;;4.30;99.90;;;;;;5092694;28;20028;-91
2022/01/10 04:47:25;;;;;;;22.60;4.88;;;4.20;99.90;;;;;;5092813;28;20024;-91
2022/01/10 04:52:31;;;;;;;18.13;3.67;;;4.20;99.90;;;;;;5086476;28;20035;-90
2022/01/10 04:54:57;;;;;;;17.25;4.38;;;4.10;99.90;;;;;;5076810;28;20028;-90
2022/01/10 04:57:42;;;;;;;18.45;4.38;;;4.20;99.90;;;;;;5072693;28;20107;-90
2022/01/10 05:00:10;;;;;;;12.98;3.78;;;4.10;99.90;;;;;;5072305;28;20039;-90
2022/01/10 05:02:37;;;;;;;18.50;5.25;;;4.10;99.90;;;;;;5087990;28;20028;-90
2022/01/10 05:05:03;;;;;;;15.48;3.33;;;4.10;99.90;;;;;;5088086;28;20024;-90
2022/01/10 05:07:31;;;;;;;22.98;4.40;;;4.10;99.90;;;;;;5087856;28;20024;-89
2022/01/10 05:10:00;;;;;;;20.42;3.90;;;4.10;99.90;;;;;;5072537;28;20036;-90
2022/01/10 05:12:49;;;;;;;16.38;3.83;;;4.20;99.90;;;;;;5075526;28;20040;-90
2022/01/10 05:15:15;;;;;;;22.25;5.13;;;4.30;99.90;;;;;;5108126;28;20036;-90
2022/01/10 05:17:48;;;;;;;23.90;4.35;;;4.30;99.90;;;;;;5074461;28;20034;-89
2022/01/10 05:20:13;;;;;;;16.70;4.20;;;4.30;99.90;;;;;;5074485;28;20036;-90
2022/01/10 05:22:47;;;;;;;22.40;4.13;;;4.30;99.90;;;;;;5091758;28;20039;-90
2022/01/10 05:25:14;;;;;;;25.70;5.05;;;4.30;99.90;;;;;;5074668;28;20483;-90
2022/01/10 05:27:39;;;;;;;19.52;4.85;;;4.30;99.90;;;;;;5062509;28;20028;-91
2022/01/10 05:30:20;;;;;;;38.10;5.85;;;4.30;99.90;;;;;;5054030;28;20372;-90
2022/01/10 05:32:46;;;;;;;26.15;4.70;;;4.30;99.90;;;;;;5054645;28;20024;-90
2022/01/10 05:35:16;;;;;;;26.63;4.90;;;4.30;99.90;;;;;;5073901;28;20705;-90
2022/01/10 05:37:42;;;;;;;19.85;4.63;;;4.30;99.90;;;;;;5058435;28;20087;-90
2022/01/10 05:40:08;;;;;;;25.70;4.68;;;4.30;99.90;;;;;;5058204;28;20028;-91
2022/01/10 05:42:44;;;;;;;24.92;5.72;;;4.30;99.90;;;;;;5092996;28;20082;-90
2022/01/10 05:45:09;;;;;;;32.92;4.95;;;4.30;99.90;;;;;;5095898;28;20028;-90
2022/01/10 05:47:43;;;;;;;41.42;6.18;;;4.40;99.90;;;;;;5096344;28;20414;-90
2022/01/10 05:50:11;;;;;;;24.35;5.25;;;4.40;99.90;;;;;;5096115;28;20020;-90
2022/01/10 05:52:42;;;;;;;32.58;6.10;;;4.40;99.90;;;;;;5096235;28;20034;-91
2022/01/10 05:55:08;;;;;;;31.05;5.65;;;4.40;99.90;;;;;;5059826;28;20032;-91
2022/01/10 05:57:33;;;;;;;35.00;6.57;;;4.50;99.90;;;;;;5057969;28;20025;-91
2022/01/10 06:00:05;;;;;;;23.13;6.38;;;4.50;99.90;;;;;;5091475;28;20103;-91
2022/01/10 06:02:31;;;;;;;31.90;6.80;;;4.50;99.90;;;;;;5081687;28;20054;-91
2022/01/10 06:05:09;;;;;;;20.23;5.97;;;4.50;99.90;;;;;;5116990;27;20056;-91
2022/01/10 06:07:36;;;;;;;29.60;6.28;;;4.50;99.90;;;;;;5110896;28;20365;-91
2022/01/10 06:10:04;;;;;;;23.08;5.32;;;4.40;99.90;;;;;;5097980;28;20020;-90
2022/01/10 06:12:29;;;;;;;24.85;6.53;;;4.40;99.90;;;;;;5109204;28;20039;-91
2022/01/10 06:14:55;;;;;;;31.33;6.95;;;4.40;99.90;;;;;;5095485;28;20032;-91
2022/01/10 06:17:21;;;;;;;34.00;6.85;;;4.40;99.90;;;;;;5107745;28;20091;-91
2022/01/10 06:19:53;;;;;;;28.48;7.35;;;4.50;99.90;;;;;;5057483;28;20081;-91
2022/01/10 06:22:19;;;;;;;34.40;7.45;;;4.50;99.90;;;;;;5074901;28;20036;-90
2022/01/10 06:24:53;;;;;;;25.50;7.10;;;4.60;99.90;;;;;;5079187;28;20028;-91
2022/01/10 06:27:18;;;;;;;22.88;5.22;;;4.50;99.90;;;;;;5112663;28;20480;-91
2022/01/10 06:29:44;;;;;;;39.13;8.30;;;4.50;99.90;;;;;;5089829;28;20123;-92
2022/01/10 06:32:10;;;;;;;25.33;6.78;;;4.50;99.90;;;;;;5082459;28;20420;-91
2022/01/10 06:34:37;;;;;;;23.02;7.80;;;4.50;99.90;;;;;;5097447;28;20079;-91
2022/01/10 06:37:02;;;;;;;24.20;5.93;;;4.50;99.90;;;;;;5114806;28;20027;-89
2022/01/10 06:39:28;;;;;;;40.65;8.38;;;4.50;99.90;;;;;;5104132;28;20043;-91
2022/01/10 06:41:58;;;;;;;28.65;6.07;;;4.70;99.90;;;;;;5084787;28;20042;-91
2022/01/10 06:44:24;;;;;;;28.98;5.82;;;4.50;99.90;;;;;;5096194;28;20028;-91
2022/01/10 06:46:50;;;;;;;23.50;6.13;;;4.50;99.90;;;;;;5112394;28;20030;-91
2022/01/10 06:49:17;;;;;;;26.40;5.70;;;4.50;99.90;;;;;;5089738;28;20025;-91
2022/01/10 06:51:43;;;;;;;27.95;5.43;;;4.50;99.90;;;;;;5106370;28;20032;-91
2022/01/10 06:54:09;;;;;;;39.97;6.75;;;4.50;99.90;;;;;;5086640;28;20122;-91
2022/01/10 06:56:34;;;;;;;21.15;5.65;;;4.50;99.90;;;;;;5109060;28;20391;-91
2022/01/10 06:59:00;;;;;;;20.70;6.00;;;4.40;99.90;;;;;;5103240;28;20029;-91
2022/01/10 07:01:26;;;;;;;19.63;6.38;;;4.50;99.90;;;;;;5096377;28;20417;-91
2022/01/10 07:03:54;;;;;;;30.10;6.97;;;4.50;99.90;;;;;;5108320;28;20038;-92
2022/01/10 07:06:20;;;;;;;27.10;7.00;;;4.60;99.90;;;;;;5098147;28;20024;-91
2022/01/10 07:08:46;;;;;;;30.55;6.32;;;4.50;99.90;;;;;;5082160;28;20024;-91
2022/01/10 07:11:12;;;;;;;33.58;6.63;;;4.50;99.90;;;;;;5077542;28;20024;-91
2022/01/10 07:13:37;;;;;;;29.83;6.63;;;4.50;99.90;;;;;;5099009;28;20101;-91
2022/01/10 07:16:03;;;;;;;38.50;6.50;;;4.50;99.90;;;;;;5100137;28;20033;-91
2022/01/10 07:18:29;;;;;;;31.98;6.85;;;4.50;99.90;;;;;;5103769;28;20027;-91
2022/01/10 07:20:55;;;;;;;28.92;6.93;;;4.50;99.90;;;;;;5104437;28;20039;-91
2022/01/10 07:23:21;;;;;;;35.00;6.70;;;4.50;99.90;;;;;;5076360;28;20114;-91
2022/01/10 07:25:46;;;;;;;21.40;6.03;;;4.50;99.90;;;;;;5082152;28;20085;-91
2022/01/10 07:28:12;;;;;;;33.88;7.28;;;4.50;99.90;;;;;;5056511;28;20035;-91
2022/01/10 07:30:38;;;;;;;37.90;7.25;;;4.40;99.90;;;;;;5091046;28;20495;-90
2022/01/10 07:33:03;;;;;;;35.78;6.30;;;4.40;99.90;;;;;;5109360;28;20035;-91
2022/01/10 07:35:29;;;;;;;30.40;5.63;;;4.40;99.90;;;;;;5082857;28;20387;-91
2022/01/10 07:37:56;;;;;;;33.17;7.15;;;4.40;99.90;;;;;;5108962;28;20038;-92
2022/01/10 07:40:21;;;;;;;25.17;5.43;;;4.40;99.90;;;;;;5096288;28;20031;-91
2022/01/10 07:42:47;;;;;;;26.75;6.15;;;4.30;99.90;;;;;;5068256;28;20035;-90
2022/01/10 07:45:22;;;;;;;28.55;5.65;;;4.30;99.90;;;;;;5091915;28;20038;-91
2022/01/10 07:47:48;;;;;;;18.38;5.15;;;4.20;99.90;;;;;;5077673;28;20028;-91
2022/01/10 07:50:13;;;;;;;26.02;5.43;;;4.20;99.90;;;;;;5096316;28;20424;-91
2022/01/10 07:52:39;;;;;;;24.92;4.55;;;4.20;99.90;;;;;;5114145;28;20368;-91
2022/01/10 07:55:05;;;;;;;24.98;4.07;;;4.20;99.90;;;;;;5113973;28;20020;-92
2022/01/10 07:57:31;;;;;;;26.52;5.13;;;4.20;99.90;;;;;;5095321;28;20120;-90
2022/01/10 07:59:57;;;;;;;18.10;3.88;;;4.20;99.90;;;;;;5095495;28;20059;-91
2022/01/10 08:02:23;;;;;;;29.05;6.80;;;4.20;99.90;;;;;;5113420;28;20102;-91
2022/01/10 08:04:49;;;;;;;17.50;3.83;;;4.20;99.90;;;;;;5095480;28;20012;-92
2022/01/10 08:07:15;;;;;;;25.65;3.85;;;4.20;99.90;;;;;;5095656;28;20119;-91
2022/01/10 08:09:41;;;;;;;28.27;5.03;;;4.30;99.90;;;;;;5113579;28;20016;-92
2022/01/10 08:12:07;;;;;;;33.50;5.07;;;4.30;99.90;;;;;;5095477;28;20122;-91
2022/01/10 08:14:33;;;;;;;25.67;5.10;;;4.30;99.90;;;;;;5113402;28;20048;-91
2022/01/10 08:16:59;;;;;;;11.88;3.95;;;4.30;99.90;;;;;;5095331;28;20051;-91
2022/01/10 08:19:27;;;;;;;19.35;4.30;;;4.30;99.90;;;;;;5095402;28;20035;-91
2022/01/10 08:21:55;;;;;;;15.38;4.10;;;4.20;99.90;;;;;;5095106;28;20031;-91
2022/01/10 08:24:22;;;;;;;11.73;3.60;;;4.20;99.90;;;;;;5095182;28;20382;-91
2022/01/10 08:26:48;;;;;;;13.48;3.88;;;4.30;99.90;;;;;;5113362;28;20020;-91
2022/01/10 08:29:14;;;;;;;19.60;4.18;;;4.20;99.90;;;;;;5113113;28;20031;-91
2022/01/10 08:31:40;;;;;;;31.23;4.90;;;4.20;99.90;;;;;;5094887;28;20035;-91
2022/01/10 08:34:07;;;;;;;22.30;4.78;;;4.30;99.90;;;;;;5113412;28;20024;-91
2022/01/10 08:36:34;;;;;;;18.50;4.80;;;4.30;99.90;;;;;;5113305;28;20099;-91
2022/01/10 08:39:00;;;;;;;20.55;6.00;;;4.40;99.90;;;;;;5113022;28;20025;-92
2022/01/10 08:41:26;;;;;;;12.52;4.88;;;4.40;99.90;;;;;;5095047;28;20020;-91
2022/01/10 08:43:52;;;;;;;27.65;6.85;;;4.40;99.90;;;;;;5112711;28;20034;-91
2022/01/10 08:46:17;;;;;;;30.98;6.68;;;4.40;99.90;;;;;;5094958;28;20019;-91
2022/01/10 08:48:44;;;;;;;18.30;5.82;;;4.50;99.90;;;;;;5113011;28;20095;-91
2022/01/10 08:51:10;;;;;;;26.10;6.43;;;4.50;99.90;;;;;;5094934;28;20026;-91
2022/01/10 08:53:36;;;;;;;29.48;6.75;;;4.60;99.90;;;;;;5094751;28;20379;-92
2022/01/10 08:56:02;;;;;;;21.65;6.18;;;4.70;99.90;;;;;;5112998;28;20084;-91
2022/01/10 08:58:32;;;;;;;45.03;14.32;;;4.60;99.90;;;;;;5094532;28;20051;-91
2022/01/10 09:01:01;;;;;;;48.17;11.60;;;4.60;99.90;;;;;;5112994;28;20024;-92
2022/01/10 09:03:27;;;;;;;25.38;7.65;;;4.60;99.90;;;;;;5094665;28;20165;-91
2022/01/10 09:05:55;;;;;;;34.33;11.20;;;4.60;99.90;;;;;;5094541;28;20102;-91
2022/01/10 09:08:26;;;;;;;25.40;6.38;;;4.70;99.90;;;;;;5113128;28;20012;-91
2022/01/10 09:10:53;;;;;;;35.88;6.68;;;4.80;99.90;;;;;;5097509;28;20024;-91
2022/01/10 09:13:20;;;;;;;33.05;6.55;;;4.80;99.90;;;;;;5116669;28;20043;-91
2022/01/10 09:15:46;;;;;;;29.33;6.97;;;4.90;99.90;;;;;;5098685;28;20027;-92
2022/01/10 09:18:12;;;;;;;20.98;5.63;;;4.80;99.90;;;;;;5117219;28;20028;-92
2022/01/10 09:20:38;;;;;;;28.33;5.97;;;4.80;99.90;;;;;;5098800;28;20024;-91
2022/01/10 09:23:04;;;;;;;33.05;6.30;;;4.90;99.90;;;;;;5116893;28;20031;-91
2022/01/10 09:25:29;;;;;;;17.35;5.78;;;4.80;99.90;;;;;;5098644;28;20102;-91
2022/01/10 09:27:55;;;;;;;27.63;5.78;;;4.90;99.90;;;;;;5098339;28;20456;-91
2022/01/10 09:30:22;;;;;;;33.35;6.78;;;4.90;99.90;;;;;;5116666;28;20479;-91
2022/01/10 09:32:48;;;;;;;24.35;5.82;;;4.90;99.90;;;;;;5098236;28;20020;-92
2022/01/10 09:35:13;;;;;;;22.98;5.65;;;4.90;99.90;;;;;;5098252;28;20030;-91
2022/01/10 09:37:40;;;;;;;33.03;5.65;;;4.90;99.90;;;;;;5116542;28;20144;-91
2022/01/10 09:40:06;;;;;;;21.50;6.57;;;5.00;99.90;;;;;;5116847;28;20034;-92
2022/01/10 09:42:34;;;;;;;19.38;5.25;;;5.00;99.90;;;;;;5116340;28;20024;-91
2022/01/10 09:45:00;;;;;;;17.25;6.05;;;4.90;99.90;;;;;;5116203;28;20016;-91
2022/01/10 09:47:26;;;;;;;26.30;6.53;;;4.90;99.90;;;;;;5098108;28;20023;-91
2022/01/10 09:49:52;;;;;;;27.55;6.47;;;4.90;99.90;;;;;;5116224;28;20031;-91
2022/01/10 09:52:18;;;;;;;32.00;7.53;;;4.90;99.90;;;;;;5097832;28;20467;-91
2022/01/10 09:54:43;;;;;;;28.63;6.50;;;4.90;99.90;;;;;;5116260;28;20020;-91
2022/01/10 09:57:10;;;;;;;23.30;6.25;;;4.90;99.90;;;;;;5098065;28;20046;-91
2022/01/10 09:59:36;;;;;;;38.25;9.13;;;4.90;99.90;;;;;;5097804;28;20491;-91
2022/01/10 10:02:02;;;;;;;28.20;8.23;;;4.90;99.90;;;;;;5097526;28;20506;-91
2022/01/10 10:04:28;;;;;;;17.23;6.47;;;5.00;99.90;;;;;;5115676;28;20464;-91
2022/01/10 10:06:54;;;;;;;30.77;8.65;;;4.90;99.90;;;;;;5097358;28;20164;-91
2022/01/10 10:09:21;;;;;;;27.35;6.88;;;4.90;99.90;;;;;;5115783;28;20027;-91
2022/01/10 10:11:52;;;;;;;42.25;8.77;;;5.00;99.90;;;;;;5097280;28;20387;-90
2022/01/10 10:14:21;;;;;;;30.48;6.75;;;5.00;99.90;;;;;;5097116;28;20045;-91
2022/01/10 10:16:52;;;;;;;33.30;8.10;;;5.10;99.90;;;;;;5097438;28;20103;-87
2022/01/10 10:19:29;;;;;;;22.02;7.05;;;5.10;99.90;;;;;;5115728;28;20533;-87
2022/01/10 10:21:58;;;;;;;47.55;8.48;;;5.10;99.90;;;;;;5096375;28;20039;-87
2022/01/10 10:24:24;;;;;;;33.92;8.65;;;5.20;99.90;;;;;;5115593;28;20443;-88
2022/01/10 10:26:51;;;;;;;66.32;12.20;;;5.20;99.90;;;;;;5115373;28;20020;-86
2022/01/10 10:29:19;;;;;;;42.22;10.88;;;5.30;99.90;;;;;;5096781;28;20109;-87
2022/01/10 10:31:50;;;;;;;49.15;12.07;;;5.20;99.90;;;;;;5115346;28;20016;-88
2022/01/10 10:34:27;;;;;;;69.53;13.80;;;5.20;99.90;;;;;;5115391;28;20024;-87
2022/01/10 10:37:07;;;;;;;43.60;13.10;;;5.20;99.90;;;;;;5115279;28;20049;-87
2022/01/10 10:39:36;;;;;;;54.22;13.43;;;5.30;99.90;;;;;;5096981;28;20023;-87
2022/01/10 10:42:04;;;;;;;62.33;13.32;;;5.20;99.90;;;;;;5096586;28;20024;-87
2022/01/10 10:44:30;;;;;;;51.85;14.43;;;5.20;99.90;;;;;;5114880;28;20051;-88
2022/01/10 10:46:56;;;;;;;46.33;11.70;;;5.20;99.90;;;;;;5115040;28;20027;-87
2022/01/10 10:49:33;;;;;;;59.15;11.38;;;5.20;99.90;;;;;;5115152;28;20099;-87
2022/01/10 10:52:01;;;;;;;48.35;11.45;;;5.20;99.90;;;;;;5114764;28;20024;-87
2022/01/10 10:54:31;;;;;;;52.92;10.82;;;5.20;99.90;;;;;;5115017;28;20080;-87
2022/01/10 10:56:58;;;;;;;45.00;10.82;;;5.20;99.90;;;;;;5114821;28;20016;-87
2022/01/10 10:59:28;;;;;;;35.03;11.20;;;5.20;99.90;;;;;;5114581;28;20022;-87
2022/01/10 11:01:55;;;;;;;58.53;15.07;;;5.20;99.90;;;;;;5114628;28;20019;-87
2022/01/10 11:04:20;;;;;;;35.70;12.20;;;5.30;99.90;;;;;;5114968;28;20456;-87
2022/01/10 11:06:46;;;;;;;42.20;12.80;;;5.30;99.90;;;;;;5114727;28;20022;-87
2022/01/10 11:09:13;;;;;;;38.55;13.45;;;5.30;99.90;;;;;;5114859;28;20348;-87
2022/01/10 11:11:40;;;;;;;42.92;12.85;;;5.20;99.90;;;;;;5114383;28;20026;-87
2022/01/10 11:14:08;;;;;;;48.92;14.43;;;5.20;99.90;;;;;;5095898;28;20127;-88
2022/01/10 11:16:36;;;;;;;52.28;16.52;;;5.20;99.90;;;;;;5114604;28;20088;-87
2022/01/10 11:19:02;;;;;;;47.80;13.48;;;5.30;99.90;;;;;;5090775;28;20109;-87
2022/01/10 11:21:28;;;;;;;46.42;14.90;;;5.20;99.90;;;;;;5093377;28;20028;-87
2022/01/10 11:23:55;;;;;;;43.67;15.95;;;5.20;99.90;;;;;;5093849;28;20043;-87
2022/01/10 11:26:21;;;;;;;45.55;13.23;;;5.20;99.90;;;;;;5075567;28;20023;-87
2022/01/10 11:28:51;;;;;;;37.60;12.60;;;5.30;99.90;;;;;;5093244;28;20372;-87
2022/01/10 11:31:22;;;;;;;33.03;10.63;;;5.30;99.90;;;;;;5109610;28;20484;-87
2022/01/10 11:33:49;;;;;;;45.72;11.25;;;5.30;99.90;;;;;;5092807;28;20020;-88
2022/01/10 11:36:15;;;;;;;40.17;11.40;;;5.30;99.90;;;;;;5093572;28;20482;-87
2022/01/10 11:38:44;;;;;;;49.10;12.55;;;5.30;99.90;;;;;;5093736;28;20047;-87
2022/01/10 11:41:12;;;;;;;35.97;11.15;;;5.30;99.90;;;;;;5093825;28;20024;-88
2022/01/10 11:44:04;;;;;;;49.10;13.07;;;5.40;99.90;;;;;;5093177;28;20020;-88
2022/01/10 11:46:39;;;;;;;33.10;9.63;;;5.30;99.90;;;;;;5093642;28;20016;-87
2022/01/10 11:49:17;;;;;;;34.23;11.30;;;5.30;99.90;;;;;;5093446;28;20024;-87
2022/01/10 11:52:00;;;;;;;40.90;10.43;;;5.30;99.90;;;;;;5093209;28;20281;-87
2022/01/10 11:54:34;;;;;;;43.72;10.82;;;5.30;99.90;;;;;;5093502;28;20077;-88
2022/01/10 11:57:14;;;;;;;39.60;10.18;;;5.30;99.90;;;;;;5092777;28;20032;-87
2022/01/10 11:59:52;;;;;;;40.63;10.95;;;5.30;99.90;;;;;;5109045;28;20479;-87
2022/01/10 12:02:23;;;;;;;45.92;11.88;;;5.40;99.90;;;;;;5093079;28;20035;-87
2022/01/10 12:04:57;;;;;;;44.03;12.15;;;5.40;99.90;;;;;;5093171;28;20095;-87
2022/01/10 12:07:23;;;;;;;41.38;11.73;;;5.40;99.90;;;;;;5093044;28;20043;-87
2022/01/10 12:09:51;;;;;;;42.25;12.40;;;5.40;99.90;;;;;;5093157;28;20031;-88
2022/01/10 12:12:18;;;;;;;39.13;12.55;;;5.40;99.90;;;;;;5092807;28;20044;-87
2022/01/10 12:14:45;;;;;;;36.80;11.95;;;5.40;99.90;;;;;;5092993;28;20043;-87
2022/01/10 12:17:12;;;;;;;51.22;12.88;;;5.50;99.90;;;;;;5093034;28;20024;-87
2022/01/10 12:19:41;;;;;;;35.03;13.13;;;5.40;99.90;;;;;;5092933;28;20039;-87
2022/01/10 12:22:08;;;;;;;40.17;12.48;;;5.50;99.90;;;;;;5092822;28;20031;-87
2022/01/10 12:24:35;;;;;;;37.95;11.68;;;5.60;99.90;;;;;;5092957;28;20099;-87
2022/01/10 12:27:03;;;;;;;29.80;11.15;;;5.60;99.90;;;;;;5092392;28;20031;-87
2022/01/10 12:29:30;;;;;;;35.08;12.93;;;5.60;99.90;;;;;;5108513;28;20131;-87
2022/01/10 12:31:55;;;;;;;36.03;12.00;;;5.50;99.90;;;;;;5092731;28;20387;-88
2022/01/10 12:34:21;;;;;;;37.90;12.82;;;5.60;99.90;;;;;;5074559;28;20024;-87
2022/01/10 12:36:47;;;;;;;40.38;12.50;;;5.50;99.90;;;;;;5092677;28;20028;-87
2022/01/10 12:39:25;;;;;;;34.15;12.68;;;5.50;99.90;;;;;;5092654;28;20016;-87
2022/01/10 12:41:52;;;;;;;29.58;12.18;;;5.50;99.90;;;;;;5092160;28;20012;-87
2022/01/10 12:44:19;;;;;;;37.03;12.45;;;5.50;99.90;;;;;;5092391;28;20103;-87
2022/01/10 12:46:45;;;;;;;38.15;11.57;;;5.50;99.90;;;;;;5074508;28;20035;-87
2022/01/10 12:49:13;;;;;;;34.88;10.50;;;5.50;99.90;;;;;;5092528;28;20024;-87
2022/01/10 12:51:45;;;;;;;47.15;12.52;;;5.60;99.90;;;;;;5074230;28;20066;-86
2022/01/10 12:54:21;;;;;;;30.50;9.50;;;5.60;99.90;;;;;;5074330;28;20092;-87
2022/01/10 12:56:48;;;;;;;41.55;11.88;;;5.60;99.90;;;;;;5092075;28;20028;-86
2022/01/10 12:59:16;;;;;;;25.40;10.20;;;5.60;99.90;;;;;;5079290;28;20474;-87
2022/01/10 13:01:42;;;;;;;40.85;10.55;;;5.50;99.90;;;;;;5112950;28;20040;-87
2022/01/10 13:04:09;;;;;;;38.17;11.13;;;5.50;99.90;;;;;;5111366;28;20035;-87
2022/01/10 13:06:38;;;;;;;32.00;10.90;;;5.60;99.90;;;;;;5110286;28;20030;-87